sensor_id;sensor_type;location;lat;lon;timestamp;pressure;altitude;pressure_sealevel;temperature;humidity
62864;BME280;48954;59.950;11.014;2023-12-20T00:02:28;97663.17;;;-2.84;80.73
62864;BME280;48954;59.950;11.014;2023-12-20T00:05:17;97663.71;;;-2.88;80.60
62864;BME280;48954;59.950;11.014;2023-12-20T00:08:05;97658.17;;;-2.92;80.74
62864;BME280;48954;59.950;11.014;2023-12-20T00:11:06;97646.60;;;-2.96;80.47
62864;BME280;48954;59.950;11.014;2023-12-20T00:14:17;97644.77;;;-3.00;80.61
62864;BME280;48954;59.950;11.014;2023-12-20T00:17:23;97646.42;;;-3.07;80.87
62864;BME280;48954;59.950;11.014;2023-12-20T00:20:15;97644.48;;;-3.11;80.88
62864;BME280;48954;59.950;11.014;2023-12-20T00:22:59;97635.98;;;-3.14;80.77
62864;BME280;48954;59.950;11.014;2023-12-20T00:25:59;97627.10;;;-3.15;81.05
62864;BME280;48954;59.950;11.014;2023-12-20T00:28:43;97617.61;;;-3.16;81.08
62864;BME280;48954;59.950;11.014;2023-12-20T00:31:25;97619.55;;;-3.16;80.93
62864;BME280;48954;59.950;11.014;2023-12-20T00:34:06;97614.13;;;-3.15;81.11
62864;BME280;48954;59.950;11.014;2023-12-20T00:36:48;97611.75;;;-3.15;81.08
62864;BME280;48954;59.950;11.014;2023-12-20T00:39:48;97605.11;;;-3.14;81.06
62864;BME280;48954;59.950;11.014;2023-12-20T00:42:50;97597.45;;;-3.17;80.89
62864;BME280;48954;59.950;11.014;2023-12-20T00:49:42;97588.03;;;-3.14;81.40
62864;BME280;48954;59.950;11.014;2023-12-20T00:52:44;97574.58;;;-3.13;81.40
62864;BME280;48954;59.950;11.014;2023-12-20T00:55:47;97566.71;;;-3.11;81.47
62864;BME280;48954;59.950;11.014;2023-12-20T00:58:50;97560.82;;;-3.10;81.71
62864;BME280;48954;59.950;11.014;2023-12-20T01:02:19;97555.40;;;-3.10;81.51
62864;BME280;48954;59.950;11.014;2023-12-20T01:05:28;97544.15;;;-3.09;81.71
62864;BME280;48954;59.950;11.014;2023-12-20T01:08:38;97542.37;;;-3.07;81.66
62864;BME280;48954;59.950;11.014;2023-12-20T01:11:45;97542.33;;;-3.06;81.73
62864;BME280;48954;59.950;11.014;2023-12-20T01:14:31;97532.84;;;-3.05;81.64
62864;BME280;48954;59.950;11.014;2023-12-20T01:17:51;97530.75;;;-3.04;81.69
62864;BME280;48954;59.950;11.014;2023-12-20T01:20:55;97527.77;;;-3.02;82.07
62864;BME280;48954;59.950;11.014;2023-12-20T01:30:01;97517.15;;;-2.96;81.76
62864;BME280;48954;59.950;11.014;2023-12-20T01:32:42;97503.06;;;-2.99;82.06
62864;BME280;48954;59.950;11.014;2023-12-20T01:35:23;97506.73;;;-2.93;81.73
62864;BME280;48954;59.950;11.014;2023-12-20T01:38:23;97501.44;;;-2.91;82.01
62864;BME280;48954;59.950;11.014;2023-12-20T01:41:27;97491.98;;;-2.91;81.70
62864;BME280;48954;59.950;11.014;2023-12-20T01:44:11;97486.88;;;-2.88;81.75
62864;BME280;48954;59.950;11.014;2023-12-20T01:46:53;97475.89;;;-2.86;82.17
62864;BME280;48954;59.950;11.014;2023-12-20T01:49:35;97469.08;;;-2.85;81.84
62864;BME280;48954;59.950;11.014;2023-12-20T01:52:16;97454.23;;;-2.83;82.01
62864;BME280;48954;59.950;11.014;2023-12-20T01:55:00;97448.62;;;-2.83;81.57
62864;BME280;48954;59.950;11.014;2023-12-20T01:57:41;97446.66;;;-2.84;81.55
62864;BME280;48954;59.950;11.014;2023-12-20T02:00:48;97440.45;;;-2.83;82.07
62864;BME280;48954;59.950;11.014;2023-12-20T02:03:28;97434.42;;;-2.84;81.59
62864;BME280;48954;59.950;11.014;2023-12-20T02:06:14;97430.01;;;-2.88;81.68
62864;BME280;48954;59.950;11.014;2023-12-20T02:09:01;97422.90;;;-2.91;81.87
62864;BME280;48954;59.950;11.014;2023-12-20T02:11:41;97415.41;;;-2.92;81.72
62864;BME280;48954;59.950;11.014;2023-12-20T02:14:23;97406.85;;;-2.91;81.94
62864;BME280;48954;59.950;11.014;2023-12-20T02:17:13;97400.36;;;-2.90;82.04
62864;BME280;48954;59.950;11.014;2023-12-20T02:19:57;97393.02;;;-2.89;81.78
62864;BME280;48954;59.950;11.014;2023-12-20T02:22:48;97387.77;;;-2.90;81.77
62864;BME280;48954;59.950;11.014;2023-12-20T02:25:33;97386.45;;;-2.90;81.85
62864;BME280;48954;59.950;11.014;2023-12-20T02:28:16;97387.58;;;-2.90;81.74
62864;BME280;48954;59.950;11.014;2023-12-20T02:31:24;97381.80;;;-2.91;82.03
62864;BME280;48954;59.950;11.014;2023-12-20T02:34:05;97374.52;;;-2.90;82.27
62864;BME280;48954;59.950;11.014;2023-12-20T02:36:40;97370.88;;;-2.91;82.02
62864;BME280;48954;59.950;11.014;2023-12-20T02:39:30;97367.02;;;-2.92;81.96
62864;BME280;48954;59.950;11.014;2023-12-20T02:42:10;97369.46;;;-2.92;81.76
62864;BME280;48954;59.950;11.014;2023-12-20T02:44:52;97370.95;;;-2.93;81.95
62864;BME280;48954;59.950;11.014;2023-12-20T02:48:09;97369.49;;;-2.93;82.11
62864;BME280;48954;59.950;11.014;2023-12-20T02:51:09;97367.38;;;-2.92;82.09
62864;BME280;48954;59.950;11.014;2023-12-20T02:53:51;97364.34;;;-2.93;81.83
62864;BME280;48954;59.950;11.014;2023-12-20T02:56:33;97361.71;;;-2.98;81.63
62864;BME280;48954;59.950;11.014;2023-12-20T02:59:14;97352.85;;;-3.03;81.47
62864;BME280;48954;59.950;11.014;2023-12-20T03:01:57;97349.50;;;-3.04;81.73
62864;BME280;48954;59.950;11.014;2023-12-20T03:04:39;97345.99;;;-3.05;81.89
62864;BME280;48954;59.950;11.014;2023-12-20T03:07:23;97339.70;;;-3.09;81.72
62864;BME280;48954;59.950;11.014;2023-12-20T03:10:25;97332.85;;;-3.09;81.66
62864;BME280;48954;59.950;11.014;2023-12-20T03:13:06;97327.60;;;-3.08;81.95
62864;BME280;48954;59.950;11.014;2023-12-20T03:15:47;97322.77;;;-3.06;82.12
62864;BME280;48954;59.950;11.014;2023-12-20T03:18:35;97313.52;;;-3.07;82.12
62864;BME280;48954;59.950;11.014;2023-12-20T03:21:18;97309.14;;;-3.05;82.28
62864;BME280;48954;59.950;11.014;2023-12-20T03:24:02;97305.44;;;-3.03;82.18
62864;BME280;48954;59.950;11.014;2023-12-20T03:26:44;97296.63;;;-3.02;82.19
62864;BME280;48954;59.950;11.014;2023-12-20T03:29:45;97297.60;;;-3.01;82.28
62864;BME280;48954;59.950;11.014;2023-12-20T03:32:29;97296.16;;;-2.98;82.38
62864;BME280;48954;59.950;11.014;2023-12-20T03:35:15;97287.42;;;-2.95;82.41
62864;BME280;48954;59.950;11.014;2023-12-20T03:37:57;97278.75;;;-2.93;82.21
62864;BME280;48954;59.950;11.014;2023-12-20T03:40:38;97281.27;;;-2.91;82.72
62864;BME280;48954;59.950;11.014;2023-12-20T03:43:20;97282.24;;;-2.90;82.29
62864;BME280;48954;59.950;11.014;2023-12-20T03:46:22;97280.14;;;-2.88;82.50
62864;BME280;48954;59.950;11.014;2023-12-20T03:49:05;97277.09;;;-2.87;82.38
62864;BME280;48954;59.950;11.014;2023-12-20T03:51:54;97269.97;;;-2.87;82.50
62864;BME280;48954;59.950;11.014;2023-12-20T03:54:39;97271.70;;;-2.86;82.26
62864;BME280;48954;59.950;11.014;2023-12-20T03:57:20;97270.91;;;-2.86;82.26
62864;BME280;48954;59.950;11.014;2023-12-20T04:00:01;97262.72;;;-2.85;82.62
62864;BME280;48954;59.950;11.014;2023-12-20T04:03:00;97261.57;;;-2.85;82.26
62864;BME280;48954;59.950;11.014;2023-12-20T04:05:48;97254.70;;;-2.85;82.43
62864;BME280;48954;59.950;11.014;2023-12-20T04:08:37;97254.27;;;-2.87;82.27
62864;BME280;48954;59.950;11.014;2023-12-20T04:11:19;97258.00;;;-2.89;82.31
62864;BME280;48954;59.950;11.014;2023-12-20T04:14:21;97254.08;;;-2.89;82.41
62864;BME280;48954;59.950;11.014;2023-12-20T04:17:06;97259.69;;;-2.88;82.00
62864;BME280;48954;59.950;11.014;2023-12-20T04:20:07;97259.92;;;-2.88;82.31
62864;BME280;48954;59.950;11.014;2023-12-20T04:22:48;97262.26;;;-2.92;82.35
62864;BME280;48954;59.950;11.014;2023-12-20T04:26:10;97262.64;;;-2.96;82.22
62864;BME280;48954;59.950;11.014;2023-12-20T04:29:08;97257.70;;;-2.99;82.27
62864;BME280;48954;59.950;11.014;2023-12-20T04:31:50;97257.66;;;-3.00;82.14
62864;BME280;48954;59.950;11.014;2023-12-20T04:34:50;97260.28;;;-3.03;82.01
62864;BME280;48954;59.950;11.014;2023-12-20T04:37:31;97261.06;;;-3.02;82.21
62864;BME280;48954;59.950;11.014;2023-12-20T04:40:34;97259.05;;;-3.03;82.18
62864;BME280;48954;59.950;11.014;2023-12-20T04:43:36;97258.33;;;-3.01;82.15
62864;BME280;48954;59.950;11.014;2023-12-20T04:46:23;97251.88;;;-3.01;82.15
62864;BME280;48954;59.950;11.014;2023-12-20T04:49:04;97244.73;;;-2.99;82.44
62864;BME280;48954;59.950;11.014;2023-12-20T04:52:06;97244.37;;;-2.98;82.37
62864;BME280;48954;59.950;11.014;2023-12-20T04:54:50;97238.81;;;-2.96;82.44
62864;BME280;48954;59.950;11.014;2023-12-20T04:57:50;97235.66;;;-2.94;82.81
62864;BME280;48954;59.950;11.014;2023-12-20T05:00:50;97228.72;;;-2.93;82.46
62864;BME280;48954;59.950;11.014;2023-12-20T05:03:32;97228.52;;;-2.90;82.87
62864;BME280;48954;59.950;11.014;2023-12-20T05:06:20;97229.82;;;-2.88;82.76
62864;BME280;48954;59.950;11.014;2023-12-20T05:09:06;97225.63;;;-2.86;82.81
62864;BME280;48954;59.950;11.014;2023-12-20T05:11:49;97226.27;;;-2.86;82.78
62864;BME280;48954;59.950;11.014;2023-12-20T05:14:31;97222.82;;;-2.85;82.77
62864;BME280;48954;59.950;11.014;2023-12-20T05:17:15;97222.81;;;-2.83;82.87
62864;BME280;48954;59.950;11.014;2023-12-20T05:20:15;97220.61;;;-2.80;83.00
62864;BME280;48954;59.950;11.014;2023-12-20T05:23:16;97213.48;;;-2.79;83.02
62864;BME280;48954;59.950;11.014;2023-12-20T05:26:02;97211.54;;;-2.78;83.21
62864;BME280;48954;59.950;11.014;2023-12-20T05:29:03;97205.08;;;-2.78;83.09
62864;BME280;48954;59.950;11.014;2023-12-20T05:31:46;97202.04;;;-2.77;83.00
62864;BME280;48954;59.950;11.014;2023-12-20T05:34:28;97202.83;;;-2.77;83.50
62864;BME280;48954;59.950;11.014;2023-12-20T05:37:08;97201.21;;;-2.77;83.19
62864;BME280;48954;59.950;11.014;2023-12-20T05:39:48;97198.84;;;-2.76;83.36
62864;BME280;48954;59.950;11.014;2023-12-20T05:42:30;97200.16;;;-2.76;83.18
62864;BME280;48954;59.950;11.014;2023-12-20T05:45:33;97195.26;;;-2.76;83.35
62864;BME280;48954;59.950;11.014;2023-12-20T05:48:31;97194.20;;;-2.75;83.51
62864;BME280;48954;59.950;11.014;2023-12-20T05:51:14;97192.91;;;-2.75;83.59
62864;BME280;48954;59.950;11.014;2023-12-20T05:54:19;97186.54;;;-2.74;83.56
62864;BME280;48954;59.950;11.014;2023-12-20T05:57:25;97185.62;;;-2.74;83.70
62864;BME280;48954;59.950;11.014;2023-12-20T06:00:36;97183.71;;;-2.74;83.63
62864;BME280;48954;59.950;11.014;2023-12-20T06:03:17;97182.41;;;-2.73;83.67
62864;BME280;48954;59.950;11.014;2023-12-20T06:06:10;97182.02;;;-2.73;83.97
62864;BME280;48954;59.950;11.014;2023-12-20T06:08:51;97175.37;;;-2.72;83.63
62864;BME280;48954;59.950;11.014;2023-12-20T06:12:07;97175.17;;;-2.71;83.93
62864;BME280;48954;59.950;11.014;2023-12-20T06:15:10;97165.19;;;-2.69;84.03
62864;BME280;48954;59.950;11.014;2023-12-20T06:17:50;97162.02;;;-2.67;84.14
62864;BME280;48954;59.950;11.014;2023-12-20T06:20:50;97155.64;;;-2.67;83.98
62864;BME280;48954;59.950;11.014;2023-12-20T06:23:34;97152.64;;;-2.65;84.28
62864;BME280;48954;59.950;11.014;2023-12-20T06:26:36;97151.80;;;-2.64;83.81
62864;BME280;48954;59.950;11.014;2023-12-20T06:29:43;97150.45;;;-2.63;84.08
62864;BME280;48954;59.950;11.014;2023-12-20T06:32:24;97151.63;;;-2.60;84.23
62864;BME280;48954;59.950;11.014;2023-12-20T06:35:08;97152.76;;;-2.58;84.16
62864;BME280;48954;59.950;11.014;2023-12-20T06:38:01;97155.29;;;-2.58;84.02
62864;BME280;48954;59.950;11.014;2023-12-20T06:40:42;97151.68;;;-2.58;84.47
62864;BME280;48954;59.950;11.014;2023-12-20T06:43:23;97153.77;;;-2.58;84.29
62864;BME280;48954;59.950;11.014;2023-12-20T06:46:04;97152.64;;;-2.57;84.33
62864;BME280;48954;59.950;11.014;2023-12-20T06:48:45;97146.64;;;-2.55;84.46
62864;BME280;48954;59.950;11.014;2023-12-20T06:51:31;97147.77;;;-2.54;84.33
62864;BME280;48954;59.950;11.014;2023-12-20T06:54:17;97154.85;;;-2.53;84.53
62864;BME280;48954;59.950;11.014;2023-12-20T06:57:00;97153.85;;;-2.51;84.40
62864;BME280;48954;59.950;11.014;2023-12-20T06:59:41;97152.00;;;-2.50;84.33
62864;BME280;48954;59.950;11.014;2023-12-20T07:02:41;97152.70;;;-2.50;84.59
62864;BME280;48954;59.950;11.014;2023-12-20T07:05:29;97154.03;;;-2.50;84.57
62864;BME280;48954;59.950;11.014;2023-12-20T07:08:13;97155.83;;;-2.49;84.56
62864;BME280;48954;59.950;11.014;2023-12-20T07:11:00;97158.20;;;-2.46;84.50
62864;BME280;48954;59.950;11.014;2023-12-20T07:14:10;97154.34;;;-2.44;84.57
62864;BME280;48954;59.950;11.014;2023-12-20T07:17:08;97154.59;;;-2.43;84.61
62864;BME280;48954;59.950;11.014;2023-12-20T07:20:24;97151.44;;;-2.39;84.60
62864;BME280;48954;59.950;11.014;2023-12-20T07:23:09;97151.77;;;-2.36;84.79
62864;BME280;48954;59.950;11.014;2023-12-20T07:26:09;97151.14;;;-2.34;84.84
62864;BME280;48954;59.950;11.014;2023-12-20T07:28:54;97155.63;;;-2.32;84.72
62864;BME280;48954;59.950;11.014;2023-12-20T07:35:08;97155.42;;;-2.27;85.07
62864;BME280;48954;59.950;11.014;2023-12-20T07:41:22;97156.52;;;-2.24;84.59
62864;BME280;48954;59.950;11.014;2023-12-20T07:44:49;97153.39;;;-2.23;84.72
62864;BME280;48954;59.950;11.014;2023-12-20T07:47:52;97158.05;;;-2.22;84.57
62864;BME280;48954;59.950;11.014;2023-12-20T07:50:35;97156.98;;;-2.21;84.79
62864;BME280;48954;59.950;11.014;2023-12-20T07:56:20;97153.42;;;-2.19;84.72
62864;BME280;48954;59.950;11.014;2023-12-20T07:59:22;97158.34;;;-2.17;84.89
62864;BME280;48954;59.950;11.014;2023-12-20T08:02:24;97158.13;;;-2.16;84.92
62864;BME280;48954;59.950;11.014;2023-12-20T08:05:07;97154.12;;;-2.14;84.94
62864;BME280;48954;59.950;11.014;2023-12-20T08:08:08;97149.36;;;-2.11;84.93
62864;BME280;48954;59.950;11.014;2023-12-20T08:10:49;97144.56;;;-2.10;84.80
62864;BME280;48954;59.950;11.014;2023-12-20T08:13:41;97143.15;;;-2.08;84.86
62864;BME280;48954;59.950;11.014;2023-12-20T08:16:43;97143.45;;;-2.07;84.70
62864;BME280;48954;59.950;11.014;2023-12-20T08:25:28;97153.31;;;-2.08;84.72
62864;BME280;48954;59.950;11.014;2023-12-20T08:34:10;97156.61;;;-2.07;84.98
62864;BME280;48954;59.950;11.014;2023-12-20T08:37:36;97155.69;;;-2.08;84.97
62864;BME280;48954;59.950;11.014;2023-12-20T10:03:03;97174.17;;;-1.91;85.62
62864;BME280;48954;59.950;11.014;2023-12-20T10:06:16;97170.31;;;-1.85;85.58
62864;BME280;48954;59.950;11.014;2023-12-20T10:09:37;97171.52;;;-1.77;85.66
62864;BME280;48954;59.950;11.014;2023-12-20T10:13:10;97160.29;;;-1.68;86.06
62864;BME280;48954;59.950;11.014;2023-12-20T14:05:44;97237.70;;;-2.32;81.38
62864;BME280;48954;59.950;11.014;2023-12-20T14:47:12;97253.31;;;-3.66;81.88
62864;BME280;48954;59.950;11.014;2023-12-20T16:31:45;97265.13;;;-5.91;82.14
62864;BME280;48954;59.950;11.014;2023-12-20T16:34:49;97266.31;;;-5.96;82.18
62864;BME280;48954;59.950;11.014;2023-12-20T16:37:40;97270.87;;;-6.04;82.27
62864;BME280;48954;59.950;11.014;2023-12-20T16:40:42;97272.45;;;-6.13;82.47
62864;BME280;48954;59.950;11.014;2023-12-20T16:43:23;97274.63;;;-6.17;82.16
62864;BME280;48954;59.950;11.014;2023-12-20T16:46:17;97273.15;;;-6.21;82.46
62864;BME280;48954;59.950;11.014;2023-12-20T16:49:46;97274.30;;;-6.24;82.47
62864;BME280;48954;59.950;11.014;2023-12-20T16:52:55;97276.00;;;-6.28;82.65
62864;BME280;48954;59.950;11.014;2023-12-20T16:55:46;97279.32;;;-6.32;82.60
62864;BME280;48954;59.950;11.014;2023-12-20T16:59:07;97279.65;;;-6.35;82.67
62864;BME280;48954;59.950;11.014;2023-12-20T17:01:52;97266.60;;;-6.42;82.78
62864;BME280;48954;59.950;11.014;2023-12-20T17:04:32;97267.52;;;-6.42;82.60
62864;BME280;48954;59.950;11.014;2023-12-20T17:07:35;97269.29;;;-6.47;82.51
62864;BME280;48954;59.950;11.014;2023-12-20T17:10:38;97269.98;;;-6.51;82.65
62864;BME280;48954;59.950;11.014;2023-12-20T17:13:21;97274.34;;;-6.54;82.32
62864;BME280;48954;59.950;11.014;2023-12-20T17:16:02;97273.73;;;-6.57;82.69
62864;BME280;48954;59.950;11.014;2023-12-20T17:18:47;97275.06;;;-6.59;82.53
62864;BME280;48954;59.950;11.014;2023-12-20T17:21:52;97280.31;;;-6.63;82.69
62864;BME280;48954;59.950;11.014;2023-12-20T17:24:38;97273.15;;;-6.67;82.60
62864;BME280;48954;59.950;11.014;2023-12-20T17:27:19;97274.88;;;-6.72;82.66
62864;BME280;48954;59.950;11.014;2023-12-20T17:30:02;97273.17;;;-6.76;82.45
62864;BME280;48954;59.950;11.014;2023-12-20T17:33:03;97267.61;;;-6.80;82.36
62864;BME280;48954;59.950;11.014;2023-12-20T17:35:44;97264.91;;;-6.83;82.67
62864;BME280;48954;59.950;11.014;2023-12-20T17:38:34;97267.26;;;-6.89;82.61
62864;BME280;48954;59.950;11.014;2023-12-20T17:41:32;97268.62;;;-6.92;82.42
62864;BME280;48954;59.950;11.014;2023-12-20T17:51:32;97292.23;;;-7.07;82.85
62864;BME280;48954;59.950;11.014;2023-12-20T17:54:14;97289.90;;;-7.10;82.81
62864;BME280;48954;59.950;11.014;2023-12-20T17:56:59;97293.44;;;-7.13;82.73
62864;BME280;48954;59.950;11.014;2023-12-20T18:00:35;97299.28;;;-7.17;82.93
62864;BME280;48954;59.950;11.014;2023-12-20T18:03:20;97308.65;;;-7.16;83.41
62864;BME280;48954;59.950;11.014;2023-12-20T18:06:45;97313.81;;;-7.13;83.36
62864;BME280;48954;59.950;11.014;2023-12-20T18:09:46;97310.09;;;-7.12;83.58
62864;BME280;48954;59.950;11.014;2023-12-20T18:12:41;97312.02;;;-7.12;83.60
62864;BME280;48954;59.950;11.014;2023-12-20T18:15:29;97314.06;;;-7.12;83.76
62864;BME280;48954;59.950;11.014;2023-12-20T18:18:10;97316.67;;;-7.14;83.72
62864;BME280;48954;59.950;11.014;2023-12-20T18:21:12;97321.64;;;-7.16;83.94
62864;BME280;48954;59.950;11.014;2023-12-20T18:23:53;97321.33;;;-7.18;83.57
62864;BME280;48954;59.950;11.014;2023-12-20T18:26:56;97327.27;;;-7.22;83.66
62864;BME280;48954;59.950;11.014;2023-12-20T18:29:39;97328.73;;;-7.26;83.34
62864;BME280;48954;59.950;11.014;2023-12-20T18:32:39;97329.20;;;-7.29;83.38
62864;BME280;48954;59.950;11.014;2023-12-20T18:35:25;97326.66;;;-7.30;83.58
62864;BME280;48954;59.950;11.014;2023-12-20T18:38:06;97326.05;;;-7.31;83.71
62864;BME280;48954;59.950;11.014;2023-12-20T18:40:54;97320.34;;;-7.32;83.66
62864;BME280;48954;59.950;11.014;2023-12-20T18:43:40;97318.52;;;-7.31;83.76
62864;BME280;48954;59.950;11.014;2023-12-20T18:46:41;97321.35;;;-7.31;83.81
62864;BME280;48954;59.950;11.014;2023-12-20T18:49:30;97323.52;;;-7.32;83.71
62864;BME280;48954;59.950;11.014;2023-12-20T18:52:10;97321.30;;;-7.34;83.61
62864;BME280;48954;59.950;11.014;2023-12-20T18:54:54;97323.58;;;-7.35;83.75
62864;BME280;48954;59.950;11.014;2023-12-20T18:57:37;97327.16;;;-7.38;83.51
62864;BME280;48954;59.950;11.014;2023-12-20T19:00:20;97331.52;;;-7.43;83.37
62864;BME280;48954;59.950;11.014;2023-12-20T19:03:20;97338.95;;;-7.49;83.05
62864;BME280;48954;59.950;11.014;2023-12-20T19:06:10;97342.37;;;-7.54;83.15
62864;BME280;48954;59.950;11.014;2023-12-20T19:08:51;97344.15;;;-7.58;83.30
62864;BME280;48954;59.950;11.014;2023-12-20T19:11:33;97336.39;;;-7.62;83.37
62864;BME280;48954;59.950;11.014;2023-12-20T19:14:34;97333.02;;;-7.66;83.20
62864;BME280;48954;59.950;11.014;2023-12-20T19:17:22;97333.58;;;-7.72;82.96
62864;BME280;48954;59.950;11.014;2023-12-20T19:20:05;97330.11;;;-7.77;82.72
62864;BME280;48954;59.950;11.014;2023-12-20T19:22:51;97336.98;;;-7.83;82.60
62864;BME280;48954;59.950;11.014;2023-12-20T19:26:00;97341.60;;;-7.91;82.48
62864;BME280;48954;59.950;11.014;2023-12-20T19:28:43;97345.17;;;-7.95;82.44
62864;BME280;48954;59.950;11.014;2023-12-20T19:31:25;97339.63;;;-7.99;82.55
62864;BME280;48954;59.950;11.014;2023-12-20T19:34:10;97342.13;;;-8.06;82.23
62864;BME280;48954;59.950;11.014;2023-12-20T19:36:50;97341.88;;;-8.12;82.10
62864;BME280;48954;59.950;11.014;2023-12-20T19:39:50;97338.45;;;-8.15;82.46
62864;BME280;48954;59.950;11.014;2023-12-20T19:42:33;97342.05;;;-8.18;82.37
62864;BME280;48954;59.950;11.014;2023-12-20T19:45:34;97336.40;;;-8.24;82.14
62864;BME280;48954;59.950;11.014;2023-12-20T19:48:16;97331.17;;;-8.29;82.16
62864;BME280;48954;59.950;11.014;2023-12-20T19:50:57;97331.63;;;-8.35;82.12
62864;BME280;48954;59.950;11.014;2023-12-20T19:53:58;97337.59;;;-8.40;82.18
62864;BME280;48954;59.950;11.014;2023-12-20T19:57:00;97340.17;;;-8.42;82.42
62864;BME280;48954;59.950;11.014;2023-12-20T20:00:10;97337.18;;;-8.43;82.25
62864;BME280;48954;59.950;11.014;2023-12-20T20:03:10;97343.34;;;-8.48;82.20
62864;BME280;48954;59.950;11.014;2023-12-20T20:05:54;97337.89;;;-8.56;82.02
62864;BME280;48954;59.950;11.014;2023-12-20T20:08:57;97338.79;;;-8.58;82.02
62864;BME280;48954;59.950;11.014;2023-12-20T20:11:48;97342.55;;;-8.60;82.11
62864;BME280;48954;59.950;11.014;2023-12-20T20:14:40;97340.95;;;-8.63;82.38
62864;BME280;48954;59.950;11.014;2023-12-20T20:17:22;97332.34;;;-8.68;82.06
62864;BME280;48954;59.950;11.014;2023-12-20T20:20:05;97324.50;;;-8.73;82.01
62864;BME280;48954;59.950;11.014;2023-12-20T20:22:51;97321.86;;;-8.78;81.82
62864;BME280;48954;59.950;11.014;2023-12-20T20:29:10;97323.59;;;-8.92;81.66
62864;BME280;48954;59.950;11.014;2023-12-20T20:31:54;97322.09;;;-8.97;81.70
62864;BME280;48954;59.950;11.014;2023-12-20T20:34:25;97324.99;;;-9.02;81.74
62864;BME280;48954;59.950;11.014;2023-12-20T20:37:14;97320.08;;;-9.05;82.02
62864;BME280;48954;59.950;11.014;2023-12-20T20:39:59;97316.92;;;-9.07;81.88
62864;BME280;48954;59.950;11.014;2023-12-20T20:42:41;97313.91;;;-9.11;81.92
62864;BME280;48954;59.950;11.014;2023-12-20T20:45:24;97313.86;;;-9.14;81.68
62864;BME280;48954;59.950;11.014;2023-12-20T20:48:07;97303.73;;;-9.17;81.70
62864;BME280;48954;59.950;11.014;2023-12-20T20:50:57;97295.59;;;-9.18;81.85
62864;BME280;48954;59.950;11.014;2023-12-20T20:53:57;97298.83;;;-9.18;82.00
62864;BME280;48954;59.950;11.014;2023-12-20T20:57:20;97296.36;;;-9.17;82.31
62864;BME280;48954;59.950;11.014;2023-12-20T21:00:00;97298.63;;;-9.13;82.54
62864;BME280;48954;59.950;11.014;2023-12-20T21:02:42;97298.15;;;-9.11;82.40
62864;BME280;48954;59.950;11.014;2023-12-20T21:05:44;97295.06;;;-9.06;82.85
62864;BME280;48954;59.950;11.014;2023-12-20T21:08:50;97283.48;;;-9.04;82.57
62864;BME280;48954;59.950;11.014;2023-12-20T21:11:37;97282.70;;;-9.02;82.78
62864;BME280;48954;59.950;11.014;2023-12-20T21:14:19;97276.73;;;-8.98;83.09
62864;BME280;48954;59.950;11.014;2023-12-20T21:17:00;97274.84;;;-8.91;83.15
62864;BME280;48954;59.950;11.014;2023-12-20T21:19:46;97268.84;;;-8.86;83.25
62864;BME280;48954;59.950;11.014;2023-12-20T21:23:06;97259.96;;;-8.79;83.47
62864;BME280;48954;59.950;11.014;2023-12-20T21:26:11;97260.04;;;-8.69;83.55
62864;BME280;48954;59.950;11.014;2023-12-20T21:28:57;97259.08;;;-8.59;83.76
62864;BME280;48954;59.950;11.014;2023-12-20T21:31:43;97256.87;;;-8.51;83.93
62864;BME280;48954;59.950;11.014;2023-12-20T21:34:42;97249.16;;;-8.39;84.18
62864;BME280;48954;59.950;11.014;2023-12-20T21:37:30;97244.77;;;-8.28;84.29
62864;BME280;48954;59.950;11.014;2023-12-20T21:43:03;97224.80;;;-8.15;84.14
62864;BME280;48954;59.950;11.014;2023-12-20T21:45:46;97214.92;;;-8.09;84.21
62864;BME280;48954;59.950;11.014;2023-12-20T21:48:32;97217.16;;;-8.00;84.36
62864;BME280;48954;59.950;11.014;2023-12-20T21:51:35;97219.13;;;-7.95;84.24
62864;BME280;48954;59.950;11.014;2023-12-20T21:54:16;97223.16;;;-7.84;84.44
62864;BME280;48954;59.950;11.014;2023-12-20T21:56:57;97216.13;;;-7.76;84.45
62864;BME280;48954;59.950;11.014;2023-12-20T21:59:55;97215.83;;;-7.67;84.53
62864;BME280;48954;59.950;11.014;2023-12-20T22:02:43;97219.04;;;-7.61;84.67
62864;BME280;48954;59.950;11.014;2023-12-20T22:05:45;97214.35;;;-7.56;84.54
62864;BME280;48954;59.950;11.014;2023-12-20T22:08:56;97210.10;;;-7.46;84.79
62864;BME280;48954;59.950;11.014;2023-12-20T22:12:04;97210.55;;;-7.39;85.04
62864;BME280;48954;59.950;11.014;2023-12-20T22:14:48;97216.23;;;-7.31;84.96
62864;BME280;48954;59.950;11.014;2023-12-20T22:17:28;97221.48;;;-7.25;84.95
62864;BME280;48954;59.950;11.014;2023-12-20T22:20:09;97225.13;;;-7.19;85.03
62864;BME280;48954;59.950;11.014;2023-12-20T22:22:55;97226.82;;;-7.15;85.11
62864;BME280;48954;59.950;11.014;2023-12-20T22:25:51;97217.83;;;-7.10;85.12
62864;BME280;48954;59.950;11.014;2023-12-20T22:28:34;97220.32;;;-7.07;84.93
62864;BME280;48954;59.950;11.014;2023-12-20T22:31:14;97214.24;;;-7.05;84.69
62864;BME280;48954;59.950;11.014;2023-12-20T22:33:57;97210.60;;;-7.05;84.75
62864;BME280;48954;59.950;11.014;2023-12-20T22:36:37;97204.68;;;-7.05;84.83
62864;BME280;48954;59.950;11.014;2023-12-20T22:39:17;97202.38;;;-7.01;85.02
62864;BME280;48954;59.950;11.014;2023-12-20T22:41:58;97195.88;;;-6.98;85.16
62864;BME280;48954;59.950;11.014;2023-12-20T22:44:39;97199.33;;;-6.95;84.95
62864;BME280;48954;59.950;11.014;2023-12-20T22:47:19;97199.42;;;-6.94;85.03
62864;BME280;48954;59.950;11.014;2023-12-20T22:50:01;97199.73;;;-6.94;85.15
62864;BME280;48954;59.950;11.014;2023-12-20T22:52:42;97204.50;;;-6.92;85.31
62864;BME280;48954;59.950;11.014;2023-12-20T22:55:23;97199.75;;;-6.89;85.45
62864;BME280;48954;59.950;11.014;2023-12-20T22:58:04;97193.59;;;-6.87;85.19
62864;BME280;48954;59.950;11.014;2023-12-20T23:00:44;97192.73;;;-6.86;85.37
62864;BME280;48954;59.950;11.014;2023-12-20T23:03:26;97187.76;;;-6.85;85.32
62864;BME280;48954;59.950;11.014;2023-12-20T23:06:08;97182.95;;;-6.84;85.33
62864;BME280;48954;59.950;11.014;2023-12-20T23:08:48;97173.55;;;-6.85;85.33
62864;BME280;48954;59.950;11.014;2023-12-20T23:11:30;97171.88;;;-6.84;85.34
62864;BME280;48954;59.950;11.014;2023-12-20T23:14:12;97168.71;;;-6.83;85.16